createdAt,value
2018-01-07T00:00:54.536Z,3.40
2018-01-07T00:01:54.497Z,4.50
2018-01-07T00:02:54.461Z,4.60
2018-01-07T00:03:54.418Z,5.10
2018-01-07T00:04:54.390Z,3.30
2018-01-07T00:05:54.363Z,3.60
2018-01-07T00:06:54.293Z,4.50
2018-01-07T00:07:54.264Z,4.50
2018-01-07T00:08:54.206Z,4.10
2018-01-07T00:09:54.173Z,4.90
2018-01-07T00:10:54.127Z,5.50
2018-01-07T00:11:54.093Z,3.50
2018-01-07T00:12:54.050Z,4.40
2018-01-07T00:13:54.103Z,4.10
2018-01-07T00:14:53.968Z,4.50
2018-01-07T00:15:53.928Z,4.10
2018-01-07T00:16:53.878Z,3.70
2018-01-07T00:17:53.834Z,3.90
2018-01-07T00:18:53.795Z,4.80
2018-01-07T00:19:53.769Z,4.30
2018-01-07T00:20:53.734Z,3.90
2018-01-07T00:21:53.682Z,4.20
2018-01-07T00:22:53.642Z,4.10
2018-01-07T00:23:53.585Z,3.60
2018-01-07T00:24:53.590Z,3.80
2018-01-07T00:25:53.503Z,4.70
2018-01-07T00:26:53.571Z,2.70
2018-01-07T00:27:53.426Z,4.80
2018-01-07T00:28:53.387Z,3.50
2018-01-07T00:29:53.341Z,3.30
2018-01-07T00:30:53.318Z,3.40
2018-01-07T00:31:53.257Z,4.70
2018-01-07T00:32:53.222Z,3.90
2018-01-07T00:33:53.183Z,4.80
2018-01-07T00:34:53.134Z,3.00
2018-01-07T00:35:53.093Z,4.10
2018-01-07T00:36:53.050Z,2.90
2018-01-07T00:37:53.063Z,4.80
2018-01-07T00:38:52.967Z,3.70
2018-01-07T00:39:52.978Z,4.10
2018-01-07T00:40:52.895Z,4.20
2018-01-07T00:41:52.876Z,4.40
2018-01-07T00:42:52.821Z,3.50
2018-01-07T00:43:52.760Z,5.00
2018-01-07T00:44:52.723Z,4.60
2018-01-07T00:45:52.684Z,3.20
2018-01-07T00:46:52.672Z,4.40
2018-01-07T00:47:52.627Z,3.70
2018-01-07T00:48:52.559Z,5.90
2018-01-07T00:49:52.512Z,3.70
2018-01-07T00:50:52.473Z,2.90
2018-01-07T00:51:52.438Z,3.80
2018-01-07T00:52:52.563Z,3.30
2018-01-07T00:53:52.385Z,3.50
2018-01-07T00:54:52.307Z,3.30
2018-01-07T00:55:52.291Z,2.70
2018-01-07T00:56:52.224Z,3.50
2018-01-07T00:57:52.226Z,3.70
2018-01-07T00:58:52.146Z,4.20
2018-01-07T00:59:52.104Z,3.40
2018-01-07T01:00:52.058Z,3.40
2018-01-07T01:01:52.016Z,3.20
2018-01-07T01:02:52.021Z,2.90
2018-01-07T01:03:51.936Z,3.40
2018-01-07T01:04:51.908Z,3.70
2018-01-07T01:05:51.850Z,3.40
2018-01-07T01:06:51.841Z,3.90
2018-01-07T01:07:51.789Z,3.10
2018-01-07T01:08:51.740Z,3.00
2018-01-07T01:09:51.715Z,3.60
2018-01-07T01:10:51.644Z,4.50
2018-01-07T01:11:51.609Z,3.10
2018-01-07T01:12:51.639Z,3.30
2018-01-07T01:13:51.524Z,4.00
2018-01-07T01:14:51.475Z,3.10
2018-01-07T01:15:51.437Z,3.00
2018-01-07T01:16:51.392Z,3.20
2018-01-07T01:17:51.358Z,2.80
2018-01-07T01:18:51.308Z,3.00
2018-01-07T01:19:51.271Z,5.00
2018-01-07T01:20:51.237Z,3.20
2018-01-07T01:21:51.191Z,2.90
2018-01-07T01:22:51.147Z,3.30
2018-01-07T01:23:51.111Z,2.80
2018-01-07T01:24:51.065Z,2.40
2018-01-07T01:25:51.022Z,3.30
2018-01-07T01:26:50.983Z,3.20
2018-01-07T01:27:50.936Z,3.10
2018-01-07T01:28:50.904Z,3.30
2018-01-07T01:29:50.943Z,3.00
2018-01-07T01:30:50.819Z,3.30
2018-01-07T01:31:50.786Z,3.00
2018-01-07T01:32:50.729Z,2.70
2018-01-07T01:33:50.699Z,3.40
2018-01-07T01:34:50.646Z,3.50
2018-01-07T01:35:50.614Z,2.90
2018-01-07T01:36:50.591Z,3.40
2018-01-07T01:37:50.527Z,4.10
2018-01-07T01:38:50.487Z,4.50
2018-01-07T01:39:50.438Z,4.00
2018-01-07T01:40:50.404Z,3.90
2018-01-07T01:41:50.365Z,2.80
2018-01-07T01:42:50.317Z,4.00
2018-01-07T01:43:50.284Z,3.90
2018-01-07T01:44:50.238Z,4.40
2018-01-07T01:45:50.190Z,3.60
2018-01-07T01:46:50.149Z,2.50
2018-01-07T01:47:50.111Z,2.70
2018-01-07T01:48:50.068Z,3.60
2018-01-07T01:49:50.513Z,3.60
2018-01-07T01:50:49.980Z,3.50
2018-01-07T01:51:49.955Z,2.50
2018-01-07T01:52:49.910Z,3.00
2018-01-07T01:53:49.862Z,3.80
2018-01-07T01:54:49.834Z,3.40
2018-01-07T01:55:49.775Z,5.40
2018-01-07T01:56:49.731Z,5.50
2018-01-07T01:57:49.696Z,3.40
2018-01-07T01:58:49.651Z,3.00
2018-01-07T01:59:49.608Z,4.30
2018-01-07T02:00:49.580Z,3.40
2018-01-07T02:01:49.525Z,3.90
2018-01-07T02:02:49.481Z,4.60
2018-01-07T02:03:49.443Z,3.80
2018-01-07T02:04:49.400Z,3.60
2018-01-07T02:05:49.364Z,4.70
2018-01-07T02:06:49.315Z,3.80
2018-01-07T02:07:49.272Z,3.90
2018-01-07T02:08:49.234Z,5.10
2018-01-07T02:09:49.209Z,5.00
2018-01-07T02:10:49.149Z,3.90
2018-01-07T02:11:49.109Z,4.50
2018-01-07T02:12:49.072Z,4.10
2018-01-07T02:13:49.025Z,3.80
2018-01-07T02:14:48.989Z,3.90
2018-01-07T02:15:48.944Z,3.60
2018-01-07T02:16:48.907Z,4.80
2018-01-07T02:17:48.862Z,4.40
2018-01-07T02:18:48.814Z,3.90
2018-01-07T02:19:48.781Z,4.50
2018-01-07T02:20:48.742Z,3.90
2018-01-07T02:21:48.691Z,3.20
2018-01-07T02:22:48.652Z,5.00
2018-01-07T02:23:48.607Z,4.50
2018-01-07T02:24:48.565Z,4.10
2018-01-07T02:25:48.534Z,5.70
2018-01-07T02:26:48.483Z,3.80
2018-01-07T02:27:48.442Z,3.60
2018-01-07T02:28:48.401Z,4.80
2018-01-07T02:29:48.362Z,4.80
2018-01-07T02:30:48.326Z,4.10
2018-01-07T02:31:48.281Z,3.10
2018-01-07T02:32:48.239Z,4.30
2018-01-07T02:33:48.191Z,4.10
2018-01-07T02:34:48.152Z,3.90
2018-01-07T02:35:48.117Z,4.00
2018-01-07T02:36:48.070Z,5.50
2018-01-07T02:37:48.027Z,5.80
2018-01-07T02:38:48.006Z,4.60
2018-01-07T02:39:47.949Z,5.10
2018-01-07T02:40:47.902Z,3.60
2018-01-07T02:41:47.860Z,3.90
2018-01-07T02:42:47.818Z,3.60
2018-01-07T02:43:47.777Z,4.00
2018-01-07T02:44:47.741Z,5.80
2018-01-07T02:45:47.695Z,3.50
2018-01-07T02:46:47.652Z,3.70
2018-01-07T02:47:47.609Z,3.00
2018-01-07T02:48:47.573Z,5.50
2018-01-07T02:49:47.533Z,4.40
2018-01-07T02:50:47.497Z,4.60
2018-01-07T02:51:47.443Z,6.30
2018-01-07T02:52:47.402Z,5.20
2018-01-07T02:53:47.360Z,3.20
2018-01-07T02:54:47.319Z,3.90
2018-01-07T02:55:47.279Z,4.40
2018-01-07T02:56:47.237Z,8.90
2018-01-07T02:57:47.193Z,4.30
2018-01-07T02:58:47.150Z,5.80
2018-01-07T02:59:47.110Z,2.80
2018-01-07T03:00:47.067Z,3.20
2018-01-07T03:01:47.030Z,4.30
2018-01-07T03:02:46.985Z,4.50
2018-01-07T03:03:46.940Z,1.70
2018-01-07T03:04:46.898Z,3.00
2018-01-07T03:05:46.864Z,3.20
2018-01-07T03:06:46.815Z,2.70
2018-01-07T03:07:46.776Z,3.70
2018-01-07T03:08:46.731Z,3.10
2018-01-07T03:09:46.702Z,3.10
2018-01-07T03:10:46.649Z,3.80
2018-01-07T03:11:46.608Z,3.10
2018-01-07T03:12:46.576Z,1.60
2018-01-07T03:13:46.527Z,2.90
2018-01-07T03:14:46.489Z,3.50
2018-01-07T03:15:46.441Z,1.80
2018-01-07T03:16:46.400Z,2.50
2018-01-07T03:17:46.376Z,1.80
2018-01-07T03:18:46.317Z,2.40
2018-01-07T03:19:46.273Z,1.70
2018-01-07T03:20:46.229Z,1.90
2018-01-07T03:21:46.190Z,2.80
2018-01-07T03:22:46.154Z,2.90
2018-01-07T03:23:46.106Z,1.90
2018-01-07T03:24:46.065Z,2.00
2018-01-07T03:25:46.020Z,2.20
2018-01-07T03:26:45.979Z,1.50
2018-01-07T03:27:45.939Z,3.70
2018-01-07T03:28:45.894Z,1.50
2018-01-07T03:29:45.853Z,1.90
2018-01-07T03:30:45.811Z,1.90
2018-01-07T03:31:45.792Z,3.20
2018-01-07T03:32:45.728Z,2.40
2018-01-07T03:33:45.690Z,1.60
2018-01-07T03:34:45.656Z,3.10
2018-01-07T03:35:45.603Z,2.00
2018-01-07T03:36:45.560Z,6.10
2018-01-07T03:37:45.529Z,2.40
2018-01-07T03:38:45.474Z,2.80
2018-01-07T03:39:45.439Z,4.10
2018-01-07T03:40:45.394Z,1.40
2018-01-07T03:41:45.350Z,2.30
2018-01-07T03:42:45.308Z,1.40
2018-01-07T03:43:45.268Z,1.70
2018-01-07T03:44:45.224Z,1.20
2018-01-07T03:45:45.182Z,2.70
2018-01-07T03:46:45.150Z,2.10
2018-01-07T03:47:45.102Z,2.30
2018-01-07T03:48:45.055Z,2.40
2018-01-07T03:49:45.019Z,2.90
2018-01-07T03:50:44.969Z,3.60
2018-01-07T03:51:44.929Z,2.90
2018-01-07T03:52:44.890Z,4.20
2018-01-07T03:53:44.848Z,2.70
2018-01-07T03:54:44.821Z,4.20
2018-01-07T03:55:44.760Z,1.50
2018-01-07T03:56:44.724Z,2.10
2018-01-07T03:57:44.674Z,1.70
2018-01-07T03:58:44.635Z,1.50
2018-01-07T03:59:44.598Z,3.30
2018-01-07T04:00:44.564Z,1.80
2018-01-07T04:01:44.511Z,2.40
2018-01-07T04:02:44.473Z,2.90
2018-01-07T04:03:44.436Z,1.50
2018-01-07T04:04:44.384Z,2.30
2018-01-07T04:05:44.343Z,2.20
2018-01-07T04:06:44.301Z,2.30
2018-01-07T04:07:44.257Z,3.80
2018-01-07T04:08:44.218Z,2.60
2018-01-07T04:09:44.173Z,4.70
2018-01-07T04:10:44.130Z,3.30
2018-01-07T04:11:44.090Z,3.20
2018-01-07T04:12:44.057Z,6.40
2018-01-07T04:13:44.009Z,5.10
2018-01-07T04:14:43.962Z,3.80
2018-01-07T04:15:43.924Z,6.10
2018-01-07T04:16:43.886Z,6.10
2018-01-07T04:17:43.884Z,5.90
2018-01-07T04:18:43.801Z,4.50
2018-01-07T04:19:43.750Z,7.80
2018-01-07T04:20:43.710Z,5.80
2018-01-07T04:21:43.669Z,5.20
2018-01-07T04:22:43.625Z,2.90
2018-01-07T04:23:43.594Z,5.80
2018-01-07T04:24:43.546Z,6.20
2018-01-07T04:25:43.501Z,5.60
2018-01-07T04:26:43.457Z,3.10
2018-01-07T04:27:43.413Z,2.60
2018-01-07T04:28:43.372Z,2.20
2018-01-07T04:29:43.329Z,2.60
2018-01-07T04:30:43.284Z,1.90
2018-01-07T04:31:43.245Z,2.80
2018-01-07T04:32:43.203Z,4.00
2018-01-07T04:33:43.163Z,3.10
2018-01-07T04:34:43.120Z,1.60
2018-01-07T04:35:43.076Z,1.60
2018-01-07T04:36:43.034Z,1.50
2018-01-07T04:37:42.996Z,2.50
2018-01-07T04:38:42.951Z,1.90
2018-01-07T04:39:42.910Z,3.10
2018-01-07T04:40:42.869Z,1.90
2018-01-07T04:41:42.824Z,2.40
2018-01-07T04:42:42.783Z,2.10
2018-01-07T04:43:42.738Z,1.50
2018-01-07T04:44:42.701Z,1.80
2018-01-07T04:45:42.658Z,2.80
2018-01-07T04:46:42.614Z,2.70
2018-01-07T04:47:42.572Z,2.10
2018-01-07T04:48:42.531Z,2.40
2018-01-07T04:49:42.485Z,2.90
2018-01-07T04:50:42.448Z,2.00
2018-01-07T04:51:42.402Z,2.50
2018-01-07T04:52:42.365Z,2.80
2018-01-07T04:53:42.324Z,2.20
2018-01-07T04:54:42.290Z,2.10
2018-01-07T04:55:42.233Z,2.80
2018-01-07T04:56:42.194Z,2.20
2018-01-07T04:57:42.147Z,2.30
2018-01-07T04:58:42.117Z,3.10
2018-01-07T04:59:42.062Z,2.40
2018-01-07T05:00:42.040Z,1.70
2018-01-07T05:01:41.981Z,2.30
2018-01-07T05:02:41.939Z,2.20
2018-01-07T05:03:41.906Z,1.40
2018-01-07T05:04:41.850Z,1.60
2018-01-07T05:05:41.825Z,2.70
2018-01-07T05:06:41.766Z,1.20
2018-01-07T05:07:41.730Z,2.30
2018-01-07T05:08:41.691Z,2.80
2018-01-07T05:09:41.645Z,2.90
2018-01-07T05:10:41.597Z,2.10
2018-01-07T05:11:41.566Z,2.00
2018-01-07T05:12:41.517Z,4.60
2018-01-07T05:13:41.472Z,2.00
2018-01-07T05:14:41.430Z,3.00
2018-01-07T05:15:41.394Z,2.40
2018-01-07T05:16:41.343Z,2.10
2018-01-07T05:17:41.307Z,2.50
2018-01-07T05:18:41.258Z,3.30
2018-01-07T05:19:41.217Z,2.00
2018-01-07T05:20:41.190Z,2.50
2018-01-07T05:21:41.135Z,2.00
2018-01-07T05:22:41.087Z,1.50
2018-01-07T05:23:41.060Z,1.80
2018-01-07T05:24:41.004Z,2.70
2018-01-07T05:25:40.976Z,2.50
2018-01-07T05:26:40.929Z,3.10
2018-01-07T05:27:40.876Z,2.10
2018-01-07T05:28:40.839Z,1.70
2018-01-07T05:29:40.795Z,2.00
2018-01-07T05:30:40.748Z,3.10
2018-01-07T05:31:40.709Z,3.10
2018-01-07T05:32:40.668Z,1.80
2018-01-07T05:33:40.625Z,2.30
2018-01-07T05:34:40.584Z,2.20
2018-01-07T05:35:40.539Z,2.50
2018-01-07T05:36:40.497Z,1.70
2018-01-07T05:37:40.456Z,1.90
2018-01-07T05:38:40.414Z,1.80
2018-01-07T05:39:40.415Z,4.50
2018-01-07T05:40:40.328Z,1.70
2018-01-07T05:41:40.286Z,2.80
2018-01-07T05:42:40.243Z,1.30
2018-01-07T05:43:40.204Z,2.80
2018-01-07T05:44:40.158Z,2.10
2018-01-07T05:45:40.115Z,3.20
2018-01-07T05:46:40.074Z,1.40
2018-01-07T05:47:40.029Z,1.90
2018-01-07T05:48:39.989Z,2.30
2018-01-07T05:49:39.967Z,1.40
2018-01-07T05:50:39.901Z,4.10
2018-01-07T05:51:39.863Z,2.80
2018-01-07T05:52:39.827Z,2.10
2018-01-07T05:53:39.778Z,2.20
2018-01-07T05:54:39.734Z,2.50
2018-01-07T05:55:39.692Z,1.70
2018-01-07T05:56:39.649Z,2.00
2018-01-07T05:57:39.606Z,2.20
2018-01-07T05:58:39.565Z,4.40
2018-01-07T05:59:39.529Z,2.20
2018-01-07T06:00:39.494Z,1.90
2018-01-07T06:01:39.440Z,2.00
2018-01-07T06:02:39.395Z,2.10
2018-01-07T06:03:39.352Z,2.00
2018-01-07T06:04:39.310Z,2.30
2018-01-07T06:05:39.270Z,2.50
2018-01-07T06:06:39.227Z,1.70
2018-01-07T06:07:39.186Z,1.60
2018-01-07T06:08:39.140Z,1.80
2018-01-07T06:09:39.099Z,2.40
2018-01-07T06:10:39.064Z,2.20
2018-01-07T06:11:39.023Z,4.20
2018-01-07T06:12:38.972Z,2.00
2018-01-07T06:13:38.930Z,3.20
2018-01-07T06:14:38.897Z,2.40
2018-01-07T06:15:38.847Z,2.60
2018-01-07T06:16:38.802Z,1.40
2018-01-07T06:17:38.764Z,2.70
2018-01-07T06:18:38.742Z,1.30
2018-01-07T06:19:38.676Z,2.10
2018-01-07T06:20:38.651Z,2.30
2018-01-07T06:21:38.591Z,2.10
2018-01-07T06:22:38.554Z,2.80
2018-01-07T06:23:38.506Z,2.10
2018-01-07T06:24:38.466Z,4.10
2018-01-07T06:25:38.420Z,3.00
2018-01-07T06:26:38.380Z,4.00
2018-01-07T06:27:38.334Z,4.70
2018-01-07T06:28:38.294Z,7.40
2018-01-07T06:29:38.255Z,4.80
2018-01-07T06:30:38.211Z,4.10
2018-01-07T06:31:38.166Z,1.80
2018-01-07T06:32:38.126Z,4.20
2018-01-07T06:33:38.092Z,6.20
2018-01-07T06:34:38.046Z,3.60
2018-01-07T06:35:38.001Z,2.80
2018-01-07T06:36:37.962Z,3.30
2018-01-07T06:37:37.933Z,3.20
2018-01-07T06:38:37.872Z,7.90
2018-01-07T06:39:37.869Z,4.10
2018-01-07T06:40:37.808Z,4.00
2018-01-07T06:41:37.744Z,2.60
2018-01-07T06:42:37.702Z,2.60
2018-01-07T06:43:37.670Z,4.30
2018-01-07T06:44:37.675Z,2.40
2018-01-07T06:45:37.580Z,3.40
2018-01-07T06:46:37.536Z,2.00
2018-01-07T06:47:37.485Z,3.00
2018-01-07T06:48:37.446Z,3.00
2018-01-07T06:49:37.405Z,1.60
2018-01-07T06:50:37.360Z,1.70
2018-01-07T06:51:37.335Z,1.80
2018-01-07T06:52:37.275Z,2.70
2018-01-07T06:53:37.233Z,3.60
2018-01-07T06:54:37.190Z,2.60
2018-01-07T06:55:37.146Z,1.60
2018-01-07T06:56:37.103Z,1.60
2018-01-07T06:57:37.060Z,2.70
2018-01-07T06:58:37.019Z,2.20
2018-01-07T06:59:36.973Z,3.00
2018-01-07T07:00:36.938Z,3.30
2018-01-07T07:01:36.895Z,2.70
2018-01-07T07:02:36.848Z,2.70
2018-01-07T07:03:36.802Z,4.00
2018-01-07T07:04:36.767Z,4.90
2018-01-07T07:05:36.720Z,1.90
2018-01-07T07:06:36.678Z,1.70
2018-01-07T07:07:36.632Z,2.00
2018-01-07T07:08:36.598Z,2.40
2018-01-07T07:09:36.550Z,3.50
2018-01-07T07:10:36.508Z,1.70
2018-01-07T07:11:36.472Z,6.60
2018-01-07T07:12:36.422Z,3.20
2018-01-07T07:13:36.389Z,3.90
2018-01-07T07:14:36.340Z,3.40
2018-01-07T07:15:36.293Z,3.40
2018-01-07T07:16:36.251Z,6.20
2018-01-07T07:17:36.218Z,3.90
2018-01-07T07:18:36.165Z,7.70
2018-01-07T07:19:36.126Z,3.90
2018-01-07T07:20:36.097Z,4.30
2018-01-07T07:21:36.039Z,6.00
2018-01-07T07:22:35.995Z,4.70
2018-01-07T07:23:35.963Z,4.90
2018-01-07T07:24:35.912Z,5.20
2018-01-07T07:25:35.877Z,3.60
2018-01-07T07:26:35.826Z,3.80
2018-01-07T07:27:35.783Z,6.70
2018-01-07T07:28:35.786Z,4.60
2018-01-07T07:29:35.700Z,5.80
2018-01-07T07:30:35.667Z,8.80
2018-01-07T07:31:35.614Z,6.30
2018-01-07T07:32:35.571Z,5.80
2018-01-07T07:33:35.538Z,7.10
2018-01-07T07:34:35.486Z,9.60
2018-01-07T07:35:35.464Z,7.20
2018-01-07T07:36:35.404Z,7.00
2018-01-07T07:37:35.357Z,7.00
2018-01-07T07:38:35.350Z,6.70
2018-01-07T07:39:35.275Z,4.40
2018-01-07T07:40:35.242Z,6.20
2018-01-07T07:41:35.194Z,6.80
2018-01-07T07:42:35.152Z,8.90
2018-01-07T07:43:35.101Z,9.40
2018-01-07T07:44:35.060Z,8.40
2018-01-07T07:45:35.019Z,10.30
2018-01-07T07:46:34.972Z,8.20
2018-01-07T07:47:34.931Z,6.80
2018-01-07T07:48:34.894Z,7.20
2018-01-07T07:49:34.848Z,9.20
2018-01-07T07:50:34.805Z,9.10
2018-01-07T07:51:34.762Z,7.30
2018-01-07T07:52:34.719Z,12.40
2018-01-07T07:53:34.696Z,9.50
2018-01-07T07:54:34.639Z,7.30
2018-01-07T07:55:34.591Z,7.20
2018-01-07T07:56:34.568Z,6.10
2018-01-07T07:57:34.505Z,9.20
2018-01-07T07:58:34.466Z,11.10
2018-01-07T07:59:34.420Z,7.30
2018-01-07T08:00:34.381Z,12.30
2018-01-07T08:01:34.332Z,11.80
2018-01-07T08:02:34.308Z,9.20
2018-01-07T08:03:34.261Z,8.60
2018-01-07T08:04:34.208Z,8.60
2018-01-07T08:05:34.164Z,5.90
2018-01-07T08:06:34.121Z,6.60
2018-01-07T08:07:34.077Z,5.80
2018-01-07T08:08:34.036Z,5.20
2018-01-07T08:09:33.996Z,6.30
2018-01-07T08:10:33.960Z,7.30
2018-01-07T08:11:34.006Z,4.10
2018-01-07T08:12:33.870Z,7.80
2018-01-07T08:13:33.825Z,5.50
2018-01-07T08:14:33.781Z,6.50
2018-01-07T08:15:33.743Z,5.30
2018-01-07T08:16:33.711Z,5.40
2018-01-07T08:17:33.654Z,5.30
2018-01-07T08:18:33.621Z,7.80
2018-01-07T08:19:33.568Z,6.20
2018-01-07T08:20:33.528Z,5.50
2018-01-07T08:21:33.485Z,9.20
2018-01-07T08:22:33.439Z,6.90
2018-01-07T08:23:33.400Z,8.30
2018-01-07T08:24:33.356Z,5.80
2018-01-07T08:25:33.315Z,3.20
2018-01-07T08:26:33.309Z,6.10
2018-01-07T08:27:33.228Z,5.90
2018-01-07T08:28:33.194Z,8.40
2018-01-07T08:29:33.143Z,4.50
2018-01-07T08:30:33.102Z,5.00
2018-01-07T08:31:33.066Z,5.10
2018-01-07T08:32:33.022Z,3.50
2018-01-07T08:33:32.975Z,3.70
2018-01-07T08:34:32.934Z,6.90
2018-01-07T08:35:32.888Z,5.00
2018-01-07T08:36:32.846Z,5.40
2018-01-07T08:37:32.812Z,2.50
2018-01-07T08:38:32.760Z,4.00
2018-01-07T08:39:32.716Z,4.20
2018-01-07T08:40:32.690Z,5.70
2018-01-07T08:41:32.636Z,5.70
2018-01-07T08:42:32.588Z,6.20
2018-01-07T08:43:32.548Z,7.70
2018-01-07T08:44:32.506Z,6.30
2018-01-07T08:45:32.465Z,6.20
2018-01-07T08:46:32.419Z,4.90
2018-01-07T08:47:32.379Z,7.10
2018-01-07T08:48:32.338Z,6.90
2018-01-07T08:49:32.293Z,7.10
2018-01-07T08:50:32.252Z,9.00
2018-01-07T08:51:32.207Z,5.10
2018-01-07T08:52:32.170Z,2.70
2018-01-07T08:53:32.130Z,3.60
2018-01-07T08:54:32.084Z,2.70
2018-01-07T08:55:32.037Z,2.40
2018-01-07T08:56:32.005Z,3.70
2018-01-07T08:57:31.962Z,4.50
2018-01-07T08:58:31.910Z,6.80
2018-01-07T08:59:31.880Z,5.90
2018-01-07T09:00:31.830Z,7.50
2018-01-07T09:01:31.792Z,7.40
2018-01-07T09:02:31.765Z,4.30
2018-01-07T09:03:31.705Z,5.30
2018-01-07T09:04:31.664Z,6.90
2018-01-07T09:05:31.619Z,4.50
2018-01-07T09:06:31.579Z,5.00
2018-01-07T09:07:31.531Z,4.00
2018-01-07T09:08:31.491Z,3.60
2018-01-07T09:09:31.446Z,5.50
2018-01-07T09:10:31.404Z,3.80
2018-01-07T09:11:31.367Z,4.10
2018-01-07T09:12:31.324Z,4.40
2018-01-07T09:13:31.298Z,4.00
2018-01-07T09:14:31.233Z,4.10
2018-01-07T09:15:31.188Z,4.90
2018-01-07T09:16:31.154Z,3.80
2018-01-07T09:17:31.107Z,3.70
2018-01-07T09:18:31.061Z,3.70
2018-01-07T09:19:31.031Z,4.00
2018-01-07T09:20:30.977Z,5.20
2018-01-07T09:21:30.937Z,5.60
2018-01-07T09:22:30.894Z,3.60
2018-01-07T09:23:30.848Z,2.80
2018-01-07T09:24:30.821Z,5.00
2018-01-07T09:25:30.762Z,5.10
2018-01-07T09:26:30.725Z,4.60
2018-01-07T09:27:30.686Z,5.40
2018-01-07T09:28:30.638Z,2.80
2018-01-07T09:29:30.600Z,2.30
2018-01-07T09:30:30.552Z,1.70
2018-01-07T09:31:30.513Z,2.40
2018-01-07T09:32:30.469Z,2.10
2018-01-07T09:33:30.433Z,3.10
2018-01-07T09:34:30.385Z,4.40
2018-01-07T09:35:30.342Z,3.50
2018-01-07T09:36:30.297Z,4.50
2018-01-07T09:37:30.255Z,3.50
2018-01-07T09:38:30.213Z,3.70
2018-01-07T09:39:30.176Z,3.60
2018-01-07T09:40:30.131Z,3.60
2018-01-07T09:41:30.098Z,2.10
2018-01-07T09:42:30.044Z,2.80
2018-01-07T09:43:30.004Z,3.10
2018-01-07T09:44:29.962Z,2.40
2018-01-07T09:45:29.918Z,4.20
2018-01-07T09:46:29.884Z,2.10
2018-01-07T09:47:29.833Z,2.60
2018-01-07T09:48:29.790Z,2.60
2018-01-07T09:49:29.748Z,2.80
2018-01-07T09:50:29.711Z,2.50
2018-01-07T09:51:29.664Z,3.50
2018-01-07T09:52:29.622Z,4.30
2018-01-07T09:53:29.583Z,2.70
2018-01-07T09:54:29.536Z,2.60
2018-01-07T09:55:29.500Z,2.80
2018-01-07T09:56:29.453Z,3.10
2018-01-07T09:57:29.411Z,3.80
2018-01-07T09:58:29.373Z,3.40
2018-01-07T09:59:29.335Z,3.60
2018-01-07T10:00:29.289Z,3.30
2018-01-07T10:01:29.243Z,3.90
2018-01-07T10:02:29.209Z,1.90
2018-01-07T10:03:29.159Z,2.90
2018-01-07T10:04:29.116Z,1.50
2018-01-07T10:05:29.075Z,3.10
2018-01-07T10:06:29.048Z,2.50
2018-01-07T10:07:28.988Z,1.90
2018-01-07T10:08:28.953Z,3.30
2018-01-07T10:09:28.906Z,2.00
2018-01-07T10:10:28.866Z,1.10
2018-01-07T10:11:28.834Z,1.80
2018-01-07T10:12:28.777Z,3.10
2018-01-07T10:13:28.738Z,3.00
2018-01-07T10:14:28.741Z,2.60
2018-01-07T10:15:28.649Z,2.90
2018-01-07T10:16:28.609Z,1.70
2018-01-07T10:17:28.568Z,2.10
2018-01-07T10:18:28.523Z,3.20
2018-01-07T10:19:28.489Z,3.40
2018-01-07T10:20:28.435Z,2.50
2018-01-07T10:21:28.397Z,2.40
2018-01-07T10:22:28.350Z,3.40
2018-01-07T10:23:28.316Z,2.50
2018-01-07T10:24:28.270Z,2.60
2018-01-07T10:25:28.227Z,2.40
2018-01-07T10:26:28.184Z,2.20
2018-01-07T10:27:28.141Z,3.20
2018-01-07T10:28:28.101Z,3.20
2018-01-07T10:29:28.058Z,3.20
2018-01-07T10:30:28.018Z,2.90
2018-01-07T10:31:27.975Z,2.40
2018-01-07T10:32:27.933Z,2.20
2018-01-07T10:33:27.894Z,5.20
2018-01-07T10:34:27.850Z,8.40
2018-01-07T10:35:27.806Z,3.10
2018-01-07T10:36:27.761Z,7.60
2018-01-07T10:37:27.718Z,4.80
2018-01-07T10:38:27.675Z,4.30
2018-01-07T10:39:27.640Z,2.30
2018-01-07T10:40:27.603Z,2.50
2018-01-07T10:41:27.552Z,1.30
2018-01-07T10:42:27.506Z,2.50
2018-01-07T10:43:27.465Z,3.30
2018-01-07T10:44:27.434Z,1.30
2018-01-07T10:45:27.382Z,3.10
2018-01-07T10:46:27.345Z,1.10
2018-01-07T10:47:27.297Z,2.80
2018-01-07T10:48:27.257Z,4.60
2018-01-07T10:49:27.214Z,2.40
2018-01-07T10:50:27.179Z,2.80
2018-01-07T10:51:27.127Z,3.40
2018-01-07T10:52:27.094Z,2.30
2018-01-07T10:53:27.053Z,3.20
2018-01-07T10:54:27.005Z,2.20
2018-01-07T10:55:26.967Z,3.20
2018-01-07T10:56:26.922Z,2.10
2018-01-07T10:57:26.878Z,2.50
2018-01-07T10:58:26.836Z,3.50
2018-01-07T10:59:26.794Z,1.30
2018-01-07T11:00:26.756Z,1.80
2018-01-07T11:01:26.709Z,3.70
2018-01-07T11:02:26.668Z,2.30
2018-01-07T11:03:26.625Z,2.80
2018-01-07T11:04:26.599Z,2.80
2018-01-07T11:05:26.552Z,2.80
2018-01-07T11:06:26.495Z,2.00
2018-01-07T11:07:26.460Z,1.70
2018-01-07T11:08:26.426Z,4.20
2018-01-07T11:09:26.384Z,2.20
2018-01-07T11:10:26.333Z,2.60
2018-01-07T11:11:26.297Z,3.20
2018-01-07T11:12:26.253Z,2.10
2018-01-07T11:13:26.208Z,2.10
2018-01-07T11:14:26.171Z,1.80
2018-01-07T11:15:26.134Z,3.10
2018-01-07T11:16:26.083Z,3.60
2018-01-07T11:17:26.039Z,2.20
2018-01-07T11:18:25.995Z,1.90
2018-01-07T11:19:26.006Z,3.90
2018-01-07T11:20:25.910Z,1.40
2018-01-07T11:21:25.878Z,1.80
2018-01-07T11:22:25.828Z,3.00
2018-01-07T11:23:25.796Z,3.80
2018-01-07T11:24:25.745Z,2.00
2018-01-07T11:25:25.713Z,2.10
2018-01-07T11:26:25.658Z,3.90
2018-01-07T11:27:25.614Z,2.70
2018-01-07T11:28:25.578Z,2.40
2018-01-07T11:29:25.535Z,1.50
2018-01-07T11:30:25.497Z,2.40
2018-01-07T11:31:25.464Z,2.30
2018-01-07T11:32:25.422Z,2.50
2018-01-07T11:33:25.362Z,2.70
2018-01-07T11:34:25.329Z,2.50
2018-01-07T11:35:25.283Z,3.80
2018-01-07T11:36:25.242Z,3.50
2018-01-07T11:37:25.215Z,1.40
2018-01-07T11:38:25.166Z,1.80
2018-01-07T11:39:25.116Z,3.70
2018-01-07T11:40:25.088Z,2.80
2018-01-07T11:41:25.041Z,2.50
2018-01-07T11:42:24.990Z,1.70
2018-01-07T11:43:24.950Z,1.70
2018-01-07T11:44:24.911Z,2.00
2018-01-07T11:45:24.864Z,1.80
2018-01-07T11:46:24.823Z,1.80
2018-01-07T11:47:24.785Z,1.70
2018-01-07T11:48:24.733Z,1.90
2018-01-07T11:49:24.692Z,1.60
2018-01-07T11:50:24.651Z,2.80
2018-01-07T11:51:24.613Z,2.90
2018-01-07T11:52:24.573Z,1.70
2018-01-07T11:53:24.529Z,2.90
2018-01-07T11:54:24.495Z,3.20
2018-01-07T11:55:24.443Z,2.00
2018-01-07T11:56:24.400Z,1.80
2018-01-07T11:57:24.359Z,1.20
2018-01-07T11:58:24.315Z,2.30
2018-01-07T11:59:24.274Z,3.30
2018-01-07T12:00:24.271Z,1.40
2018-01-07T12:01:24.295Z,2.20
2018-01-07T12:02:24.152Z,2.00
2018-01-07T12:03:24.113Z,3.00
2018-01-07T12:04:24.071Z,2.40
2018-01-07T12:05:24.033Z,1.40
2018-01-07T12:06:23.978Z,2.20
2018-01-07T12:07:23.938Z,1.70
2018-01-07T12:08:23.893Z,1.40
2018-01-07T12:09:23.852Z,3.00
2018-01-07T12:10:23.815Z,3.60
2018-01-07T12:11:23.770Z,5.10
2018-01-07T12:12:23.729Z,2.30
2018-01-07T12:13:23.684Z,2.60
2018-01-07T12:14:23.638Z,1.80
2018-01-07T12:15:23.597Z,2.10
2018-01-07T12:16:23.555Z,2.30
2018-01-07T12:17:23.522Z,3.80
2018-01-07T12:18:23.472Z,4.60
2018-01-07T12:19:23.428Z,1.80
2018-01-07T12:20:23.387Z,3.30
2018-01-07T12:21:23.343Z,3.70
2018-01-07T12:22:23.301Z,2.10
2018-01-07T12:23:23.266Z,1.80
2018-01-07T12:24:23.218Z,3.90
2018-01-07T12:25:23.186Z,4.00
2018-01-07T12:26:23.132Z,2.10
2018-01-07T12:27:23.093Z,3.60
2018-01-07T12:28:23.050Z,3.00
2018-01-07T12:29:23.010Z,2.80
2018-01-07T12:30:22.966Z,3.20
2018-01-07T12:31:22.935Z,3.30
2018-01-07T12:32:22.889Z,2.20
2018-01-07T12:33:22.841Z,3.30
2018-01-07T12:34:22.796Z,2.40
2018-01-07T12:35:22.755Z,2.20
2018-01-07T12:36:22.710Z,2.80
2018-01-07T12:37:22.671Z,2.50
2018-01-07T12:38:22.627Z,3.00
2018-01-07T12:39:22.586Z,3.00
2018-01-07T12:40:22.543Z,4.00
2018-01-07T12:41:22.514Z,3.90
2018-01-07T12:42:22.457Z,3.00
2018-01-07T12:43:22.420Z,3.90
2018-01-07T12:44:22.376Z,3.30
2018-01-07T12:45:22.336Z,2.40
2018-01-07T12:46:22.309Z,4.30
2018-01-07T12:47:22.250Z,2.50
2018-01-07T12:48:22.204Z,3.40
2018-01-07T12:49:22.167Z,5.20
2018-01-07T12:50:22.121Z,3.30
2018-01-07T12:51:22.089Z,3.30
2018-01-07T12:52:22.040Z,3.30
2018-01-07T12:53:21.995Z,4.20
2018-01-07T12:54:21.957Z,2.80
2018-01-07T12:55:21.948Z,4.10
2018-01-07T12:56:21.878Z,3.50
2018-01-07T12:57:21.830Z,3.80
2018-01-07T12:58:21.800Z,1.80
2018-01-07T12:59:21.743Z,1.80
2018-01-07T13:00:21.718Z,2.20
2018-01-07T13:01:21.662Z,2.30
2018-01-07T13:02:21.618Z,2.00
2018-01-07T13:03:21.578Z,2.80
2018-01-07T13:04:21.534Z,3.80
2018-01-07T13:05:21.493Z,3.00
2018-01-07T13:06:21.448Z,2.20
2018-01-07T13:07:21.422Z,2.20
2018-01-07T13:08:21.382Z,2.80
2018-01-07T13:09:21.333Z,2.60
2018-01-07T13:10:21.282Z,4.00
2018-01-07T13:11:21.254Z,3.00
2018-01-07T13:12:21.201Z,2.10
2018-01-07T13:13:21.184Z,2.00
2018-01-07T13:14:21.113Z,4.10
2018-01-07T13:15:21.068Z,3.00
2018-01-07T13:16:21.027Z,3.10
2018-01-07T13:17:20.994Z,2.40
2018-01-07T13:18:20.943Z,2.40